Time;durP1;ratioP1;P1;durP2;ratioP2;P2;SDS_P1;SDS_P2;PMS_P1;PMS_P2;Temp;Humidity;BMP_temperature;BMP_pressure;BME280_temperature;BME280_humidity;BME280_pressure;Samples;Min_cycle;Max_cycle;Signal;HPM_P1;HPM_P2
2022/05/04 00:01:46;;;;;;;6.50;4.57;;;;;;;3.82;100.00;93194.34;5031543;28;20042;-83
2022/05/04 00:04:13;;;;;;;8.57;4.93;;;;;;;3.82;100.00;93188.44;5034298;28;20049;-83
2022/05/04 00:06:40;;;;;;;9.85;6.45;;;;;;;3.76;100.00;93204.38;5034093;28;20049;-83
2022/05/04 00:09:07;;;;;;;8.88;6.38;;;;;;;3.71;100.00;93197.25;5034098;28;20046;-83
2022/05/04 00:11:33;;;;;;;9.88;5.60;;;;;;;3.71;100.00;93198.03;5033751;28;20057;-83
2022/05/04 00:14:02;;;;;;;12.20;6.90;;;;;;;3.73;100.00;93200.41;5033820;28;20049;-83
2022/05/04 00:16:28;;;;;;;11.48;7.10;;;;;;;3.76;100.00;93194.19;5033868;28;20064;-84
2022/05/04 00:18:55;;;;;;;12.35;6.57;;;;;;;3.71;100.00;93192.94;5034193;28;20053;-83
2022/05/04 00:21:22;;;;;;;14.93;8.57;;;;;;;3.64;100.00;93198.88;5033828;28;20072;-84
2022/05/04 00:23:49;;;;;;;16.58;9.13;;;;;;;3.54;100.00;93197.34;5033728;28;20488;-83
2022/05/04 00:26:15;;;;;;;15.13;9.25;;;;;;;3.38;100.00;93185.50;5047298;28;20061;-84
2022/05/04 00:28:42;;;;;;;13.48;7.03;;;;;;;3.37;100.00;93198.38;5053852;28;20045;-78
2022/05/04 00:31:10;;;;;;;11.60;7.07;;;;;;;3.20;100.00;93175.59;5053713;28;20106;-83
2022/05/04 00:33:37;;;;;;;13.25;7.15;;;;;;;3.34;100.00;93202.03;5053656;28;20045;-83
2022/05/04 00:36:04;;;;;;;11.30;6.93;;;;;;;3.32;100.00;93207.28;5053666;28;20045;-80
2022/05/04 00:38:31;;;;;;;8.80;5.43;;;;;;;3.31;100.00;93208.25;5053507;28;20448;-83
2022/05/04 00:40:58;;;;;;;11.55;6.53;;;;;;;3.22;100.00;93204.13;5053147;28;20507;-83
2022/05/04 00:43:26;;;;;;;9.65;5.93;;;;;;;3.26;100.00;93212.22;5053385;28;20045;-79
2022/05/04 00:45:53;;;;;;;9.07;5.95;;;;;;;3.12;100.00;93188.31;5053204;28;20053;-83
2022/05/04 00:48:21;;;;;;;11.45;6.80;;;;;;;3.23;100.00;93208.25;5053067;28;20060;-83
2022/05/04 00:50:49;;;;;;;12.30;6.72;;;;;;;3.22;100.00;93211.75;5049670;28;20095;-83
2022/05/04 00:53:17;;;;;;;12.98;7.55;;;;;;;3.21;100.00;93213.50;5032953;28;20057;-83
2022/05/04 00:55:44;;;;;;;14.23;9.07;;;;;;;3.13;100.00;93198.31;5033273;28;20072;-85
2022/05/04 01:00:55;;;;;;;13.05;8.55;;;;;;;3.23;100.00;93207.47;5033076;28;20130;-84
2022/05/04 01:03:23;;;;;;;14.23;8.63;;;;;;;3.10;100.00;93198.63;5032991;28;20064;-79
2022/05/04 01:05:50;;;;;;;15.45;8.13;;;;;;;3.09;100.00;93202.13;5032704;28;20491;-85
2022/05/04 01:08:17;;;;;;;10.38;7.85;;;;;;;3.16;100.00;93217.50;5032944;28;20045;-84
2022/05/04 01:10:43;;;;;;;9.98;7.32;;;;;;;3.14;100.00;93220.19;5032938;28;20053;-84
2022/05/04 01:13:11;;;;;;;11.30;7.47;;;;;;;3.06;100.00;93220.22;5032469;28;20100;-83
2022/05/04 01:15:37;;;;;;;11.88;7.88;;;;;;;3.05;100.00;93216.06;5032688;28;20052;-84
2022/05/04 01:18:04;;;;;;;10.35;7.18;;;;;;;3.04;100.00;93214.50;5032742;28;20053;-83
2022/05/04 01:20:32;;;;;;;12.85;8.20;;;;;;;3.00;100.00;93215.81;5032493;28;20041;-83
2022/05/04 01:23:01;;;;;;;11.98;7.88;;;;;;;3.02;100.00;93218.94;5032822;28;20042;-83
2022/05/04 01:25:27;;;;;;;11.48;7.03;;;;;;;3.07;100.00;93216.72;5032539;28;20488;-83
2022/05/04 01:27:55;;;;;;;11.80;7.70;;;;;;;3.13;100.00;93215.25;5033037;28;20057;-83
2022/05/04 01:30:22;;;;;;;11.85;7.25;;;;;;;3.11;100.00;93212.91;5032445;28;20050;-83
2022/05/04 01:32:49;;;;;;;8.98;6.72;;;;;;;3.11;100.00;93217.19;5032232;28;20049;-85
2022/05/04 01:35:16;;;;;;;9.75;7.10;;;;;;;3.02;100.00;93206.25;5032214;28;20053;-83
2022/05/04 01:37:42;;;;;;;9.50;6.47;;;;;;;3.06;100.00;93210.84;5032327;28;20041;-82
2022/05/04 01:40:11;;;;;;;6.43;5.10;;;;;;;3.09;100.00;93211.50;5032316;28;20523;-82
2022/05/04 01:42:38;;;;;;;7.75;5.05;;;;;;;3.15;100.00;93215.91;5032450;28;20068;-82
2022/05/04 01:45:08;;;;;;;6.72;4.82;;;;;;;3.13;100.00;93217.81;5032131;28;20064;-82
2022/05/04 01:47:35;;;;;;;6.72;4.63;;;;;;;3.06;100.00;93220.22;5031964;28;20054;-83
2022/05/04 01:50:02;;;;;;;8.93;4.60;;;;;;;2.93;100.00;93203.72;5032173;28;20095;-83
2022/05/04 01:52:29;;;;;;;6.57;4.78;;;;;;;2.99;100.00;93215.00;5031845;28;20045;-83
2022/05/04 01:54:56;;;;;;;4.93;3.70;;;;;;;2.96;100.00;93201.84;5031945;28;20055;-84
2022/05/04 01:57:24;;;;;;;5.47;4.35;;;;;;;2.89;100.00;93196.63;5031939;28;20120;-83
2022/05/04 01:59:51;;;;;;;5.05;3.80;;;;;;;2.89;100.00;93211.84;5031893;28;20061;-83
2022/05/04 02:02:18;;;;;;;5.43;3.80;;;;;;;2.83;100.00;93209.97;5031856;28;20099;-83
2022/05/04 02:04:45;;;;;;;5.10;3.65;;;;;;;2.79;100.00;93212.81;5031812;28;20052;-83
2022/05/04 02:07:12;;;;;;;4.65;3.40;;;;;;;2.63;100.00;93192.53;5031716;28;20052;-84
2022/05/04 02:09:40;;;;;;;4.65;3.25;;;;;;;2.49;100.00;93176.25;5031700;28;20140;-83
2022/05/04 02:12:08;;;;;;;4.80;3.85;;;;;;;2.76;100.00;93209.81;5031650;28;20049;-84
2022/05/04 02:14:37;;;;;;;5.53;3.95;;;;;;;2.79;100.00;93212.03;5031493;28;20420;-83
2022/05/04 02:17:05;;;;;;;5.35;4.15;;;;;;;2.74;100.00;93212.50;5031776;28;20050;-83
2022/05/04 02:19:32;;;;;;;5.38;3.83;;;;;;;2.66;100.00;93202.38;5031552;28;20499;-83
2022/05/04 02:21:59;;;;;;;5.05;3.65;;;;;;;2.65;100.00;93196.50;5031619;28;20049;-83
2022/05/04 02:24:26;;;;;;;6.22;3.80;;;;;;;2.80;100.00;93211.06;5028543;28;20053;-83
2022/05/04 02:26:52;;;;;;;4.75;3.47;;;;;;;2.80;100.00;93211.06;5048960;28;20052;-83
2022/05/04 02:29:19;;;;;;;5.32;3.83;;;;;;;2.78;100.00;93210.44;5030432;28;20045;-83
2022/05/04 02:31:47;;;;;;;4.75;3.78;;;;;;;2.81;100.00;93207.56;5029730;28;20049;-83
2022/05/04 02:34:14;;;;;;;4.97;3.42;;;;;;;2.76;100.00;93205.53;5028220;28;20053;-83
2022/05/04 02:39:25;;;;;;;5.88;4.40;;;;;;;2.60;100.00;93215.69;5031312;28;20064;-83
2022/05/04 02:41:52;;;;;;;6.18;4.25;;;;;;;2.51;100.00;93209.84;5030991;28;20045;-81
2022/05/04 02:44:19;;;;;;;7.57;4.97;;;;;;;2.52;100.00;93207.16;5031012;28;20045;-83
2022/05/04 02:46:50;;;;;;;9.73;4.70;;;;;;;2.57;100.00;93216.00;5031254;28;20495;-83
2022/05/04 02:49:17;;;;;;;7.50;4.93;;;;;;;2.57;100.00;93216.00;5030897;28;20041;-84
2022/05/04 02:51:44;;;;;;;8.93;5.80;;;;;;;2.52;100.00;93219.03;5030942;28;20053;-83
2022/05/04 02:54:11;;;;;;;8.52;6.07;;;;;;;2.48;100.00;93216.03;5030880;28;20045;-83
2022/05/04 02:56:38;;;;;;;7.70;5.45;;;;;;;2.42;100.00;93221.75;5031131;28;20091;-84
2022/05/04 02:59:05;;;;;;;9.35;4.97;;;;;;;2.42;100.00;93211.59;5031098;28;20080;-84
2022/05/04 03:04:18;;;;;;;7.53;5.45;;;;;;;2.56;100.00;93224.56;5030863;28;20065;-83
2022/05/04 03:06:45;;;;;;;7.80;5.40;;;;;;;2.52;100.00;93232.53;5030607;28;20053;-84
2022/05/04 03:09:12;;;;;;;7.18;5.35;;;;;;;2.52;100.00;93236.78;5031044;28;20049;-84
2022/05/04 03:11:58;;;;;;;8.82;5.55;;;;;;;2.48;100.00;93243.13;5030813;28;20049;-84
2022/05/04 03:14:27;;;;;;;8.27;5.07;;;;;;;2.22;100.00;93198.47;5030875;28;20412;-84
2022/05/04 03:16:54;;;;;;;7.85;5.28;;;;;;;2.48;100.00;93238.84;5030595;28;20103;-84
2022/05/04 03:19:23;;;;;;;7.82;5.00;;;;;;;2.43;100.00;93235.19;5030587;28;20463;-79
2022/05/04 03:21:50;;;;;;;8.80;5.13;;;;;;;2.12;100.00;93196.88;5030811;28;20049;-82
2022/05/04 03:24:17;;;;;;;8.25;5.70;;;;;;;2.41;100.00;93248.06;5030761;28;20068;-81
2022/05/04 03:26:44;;;;;;;11.13;6.00;;;;;;;2.44;100.00;93252.00;5030607;28;20053;-82
2022/05/04 03:29:11;;;;;;;9.85;5.55;;;;;;;2.52;100.00;93249.47;5030737;28;20049;-76
2022/05/04 03:31:39;;;;;;;12.07;5.85;;;;;;;2.60;100.00;93248.66;5030412;28;20084;-82
2022/05/04 03:34:06;;;;;;;7.82;4.85;;;;;;;2.64;100.00;93248.19;5030673;28;20045;-82
2022/05/04 03:36:36;;;;;;;7.55;4.72;;;;;;;2.67;100.00;93258.03;5032885;28;20050;-82
2022/05/04 03:39:21;;;;;;;6.68;4.93;;;;;;;2.70;100.00;93259.44;5034630;28;20124;-82
2022/05/04 03:41:49;;;;;;;7.97;5.00;;;;;;;2.69;100.00;93265.47;5034474;28;20404;-78
2022/05/04 03:44:16;;;;;;;16.35;8.35;;;;;;;2.62;100.00;93262.78;5034252;28;20050;-82
2022/05/04 03:46:44;;;;;;;17.38;9.48;;;;;;;2.60;100.00;93274.81;5034244;28;20049;-82
2022/05/04 03:49:12;;;;;;;15.25;8.82;;;;;;;2.62;100.00;93275.47;5034327;28;20057;-82
2022/05/04 03:51:41;;;;;;;10.45;5.72;;;;;;;2.62;100.00;93290.69;5034343;28;20061;-82
2022/05/04 03:54:08;;;;;;;8.65;5.28;;;;;;;2.59;100.00;93285.91;5034233;28;20049;-81
2022/05/04 03:56:36;;;;;;;9.52;6.30;;;;;;;2.65;100.00;93290.34;5034124;28;20061;-82
2022/05/04 03:59:04;;;;;;;6.88;6.03;;;;;;;2.51;100.00;93261.34;5033858;28;20053;-81
2022/05/04 04:01:31;;;;;;;6.78;5.25;;;;;;;2.83;100.00;93289.41;5034281;28;20042;-82
2022/05/04 04:03:58;;;;;;;7.13;5.30;;;;;;;2.90;100.00;93295.41;5034045;28;20053;-82
2022/05/04 04:06:25;;;;;;;11.30;7.15;;;;;;;2.86;100.00;93284.00;5033992;28;20053;-82
2022/05/04 04:08:53;;;;;;;11.57;6.95;;;;;;;3.05;100.00;93287.13;5034166;28;20081;-80
2022/05/04 04:11:21;;;;;;;11.40;7.43;;;;;;;3.14;100.00;93285.41;5033516;28;20049;-83
2022/05/04 04:13:48;;;;;;;13.50;7.65;;;;;;;3.22;100.00;93295.53;5033910;28;20104;-82
2022/05/04 04:16:14;;;;;;;15.10;9.40;;;;;;;3.30;100.00;93284.56;5033683;28;20053;-83
2022/05/04 04:18:41;;;;;;;13.05;8.90;;;;;;;3.26;100.00;93265.53;5033973;28;20077;-83
2022/05/04 04:23:53;;;;;;;8.57;5.32;;;;;;;3.37;100.00;93275.31;5033687;28;20076;-83
2022/05/04 04:26:20;;;;;;;7.50;5.35;;;;;;;3.43;100.00;93276.44;5033468;28;20061;-82
2022/05/04 04:28:47;;;;;;;7.95;4.75;;;;;;;3.51;100.00;93283.25;5033500;28;20056;-82
2022/05/04 04:31:14;;;;;;;6.55;4.55;;;;;;;3.57;100.00;93282.56;5033529;28;20144;-83
2022/05/04 04:33:41;;;;;;;6.35;4.53;;;;;;;3.45;100.00;93254.19;5033895;28;20053;-83
2022/05/04 04:36:08;;;;;;;7.45;4.63;;;;;;;3.68;100.00;93277.13;5033453;28;20057;-83
2022/05/04 04:38:35;;;;;;;6.88;4.43;;;;;;;3.72;100.00;93280.94;5033295;28;20103;-83
2022/05/04 04:41:03;;;;;;;6.28;4.43;;;;;;;3.80;100.00;93285.16;5033184;28;20046;-83
2022/05/04 04:43:30;;;;;;;6.65;4.68;;;;;;;3.95;100.00;93292.91;5033211;28;20506;-83
2022/05/04 04:45:57;;;;;;;13.00;9.32;;;;;;;3.86;100.00;93291.34;5033296;28;20119;-83
2022/05/04 04:48:23;;;;;;;10.82;7.38;;;;;;;3.50;100.00;93289.25;5032572;28;20411;-83
2022/05/04 04:50:50;;;;;;;11.10;7.05;;;;;;;3.45;100.00;93298.16;5032972;28;20103;-82
2022/05/04 04:53:18;;;;;;;10.50;9.10;;;;;;;3.28;100.00;93299.94;5033369;28;20046;-83
2022/05/04 04:55:45;;;;;;;11.60;7.53;;;;;;;3.20;100.00;93287.28;5033007;28;20041;-82
2022/05/04 04:58:15;;;;;;;13.07;7.38;;;;;;;3.48;100.00;93302.91;5033123;28;20053;-82
2022/05/04 05:00:42;;;;;;;11.15;8.38;;;;;;;3.60;100.00;93289.84;5032994;28;20488;-82
2022/05/04 05:03:08;;;;;;;12.65;8.93;;;;;;;3.93;100.00;93299.88;5032824;28;20042;-83
2022/05/04 05:05:36;;;;;;;12.32;7.88;;;;;;;4.12;100.00;93303.75;5033151;28;20060;-84
2022/05/04 05:08:02;;;;;;;14.52;8.60;;;;;;;4.35;100.00;93300.44;5032669;28;20049;-83
2022/05/04 05:10:30;;;;;;;9.82;7.55;;;;;;;4.49;100.00;93295.59;5032549;28;20129;-85
2022/05/04 05:12:56;;;;;;;12.13;9.15;;;;;;;4.70;100.00;93291.63;5032630;28;20061;-83
2022/05/04 05:18:09;;;;;;;10.02;8.80;;;;;;;4.89;100.00;93291.16;5032901;28;20060;-82
2022/05/04 05:20:36;;;;;;;11.32;7.10;;;;;;;5.15;100.00;93292.53;5033043;28;20463;-82
2022/05/04 05:23:04;;;;;;;10.60;6.88;;;;;;;5.31;100.00;93283.13;5031027;28;20464;-83
2022/05/04 05:25:32;;;;;;;10.35;6.75;;;;;;;5.48;100.00;93297.25;5040238;28;20470;-83
2022/05/04 05:27:59;;;;;;;15.52;9.77;;;;;;;5.50;100.00;93284.34;5052586;28;20115;-82
2022/05/04 05:30:27;;;;;;;12.45;8.40;;;;;;;5.50;100.00;93286.13;5052117;28;20052;-83
2022/05/04 05:32:54;;;;;;;10.05;7.32;;;;;;;5.28;100.00;93289.34;5052583;28;20616;-83
2022/05/04 05:35:21;;;;;;;11.10;7.65;;;;;;;5.40;100.00;93299.09;5052504;28;20049;-82
2022/05/04 05:37:48;;;;;;;10.23;7.88;;;;;;;5.36;100.00;93293.56;5052442;28;20122;-82
2022/05/04 05:40:15;;;;;;;10.02;6.65;;;;;;;5.15;100.00;93304.44;5052242;28;20049;-83
2022/05/04 05:42:42;;;;;;;10.52;7.68;;;;;;;5.16;100.00;93306.84;5052120;28;20053;-83
2022/05/04 05:45:10;;;;;;;10.35;8.25;;;;;;;5.23;100.00;93312.00;5052107;28;20083;-82
2022/05/04 05:47:39;;;;;;;8.90;6.63;;;;;;;5.47;100.00;93305.09;5052161;28;20041;-82
2022/05/04 05:50:06;;;;;;;13.27;8.90;;;;;;;5.69;100.00;93307.72;5052174;28;20049;-83
2022/05/04 05:52:33;;;;;;;13.10;8.27;;;;;;;5.77;100.00;93296.63;5052008;28;20107;-83
2022/05/04 05:55:00;;;;;;;17.80;10.60;;;;;;;5.86;100.00;93298.13;5051817;28;20048;-83
2022/05/04 05:57:27;;;;;;;17.52;12.00;;;;;;;6.03;100.00;93306.41;5051817;28;20553;-82
2022/05/04 05:59:54;;;;;;;16.65;10.73;;;;;;;6.35;100.00;93306.91;5051022;28;20458;-83
2022/05/04 06:02:22;;;;;;;12.95;8.73;;;;;;;6.67;100.00;93306.66;5051999;28;20049;-83
2022/05/04 06:04:50;;;;;;;13.00;8.30;;;;;;;6.93;100.00;93306.06;5051821;28;20060;-83
2022/05/04 06:07:17;;;;;;;16.40;9.80;;;;;;;7.30;100.00;93307.69;5051724;28;20052;-82
2022/05/04 06:09:44;;;;;;;14.57;7.82;;;;;;;7.54;100.00;93311.59;5051648;28;20044;-83
2022/05/04 06:12:11;;;;;;;24.45;12.65;;;;;;;7.87;100.00;93312.75;5051249;28;20068;-83
2022/05/04 06:14:38;;;;;;;27.50;13.20;;;;;;;8.26;100.00;93319.00;5051664;28;20048;-83
2022/05/04 06:17:05;;;;;;;32.08;15.50;;;;;;;8.78;100.00;93323.66;5051419;28;20107;-83
2022/05/04 06:19:32;;;;;;;37.78;20.13;;;;;;;9.31;100.00;93316.94;5051628;28;20098;-83
2022/05/04 06:22:00;;;;;;;49.58;20.83;;;;;;;9.60;100.00;93327.78;5051345;28;20044;-83
2022/05/04 06:24:27;;;;;;;36.80;17.80;;;;;;;9.74;100.00;93330.31;5051243;28;20052;-83
2022/05/04 06:26:54;;;;;;;30.02;15.65;;;;;;;10.15;99.26;93330.97;5051016;28;20088;-82
2022/05/04 06:29:21;;;;;;;25.08;13.57;;;;;;;10.47;98.71;93328.50;5051237;28;20048;-84
2022/05/04 06:34:32;;;;;;;22.23;12.00;;;;;;;10.58;95.78;93326.25;5051308;28;20498;-83
2022/05/04 06:37:01;;;;;;;27.88;14.90;;;;;;;9.93;96.43;93315.03;5051165;28;20048;-83
2022/05/04 06:39:27;;;;;;;37.63;17.70;;;;;;;10.41;95.97;93324.13;5051314;28;20048;-83
2022/05/04 06:41:54;;;;;;;34.28;16.35;;;;;;;11.08;96.67;93322.97;5051044;28;20060;-80
2022/05/04 06:44:21;;;;;;;32.75;15.80;;;;;;;11.52;94.75;93317.06;5031872;28;20056;-83
2022/05/04 06:46:48;;;;;;;32.75;14.98;;;;;;;11.94;91.09;93324.16;5030642;28;20056;-84
2022/05/04 06:49:15;;;;;;;26.92;13.30;;;;;;;12.28;85.80;93322.78;5031001;28;20050;-85
2022/05/04 06:51:42;;;;;;;26.30;14.10;;;;;;;12.64;85.52;93317.78;5030816;28;20057;-83
2022/05/04 06:54:10;;;;;;;34.00;14.95;;;;;;;12.69;82.72;93319.72;5030930;28;20502;-84
2022/05/04 06:56:37;;;;;;;31.75;14.70;;;;;;;12.23;85.26;93330.38;5030916;28;20041;-79
2022/05/04 06:59:04;;;;;;;29.40;13.93;;;;;;;12.78;84.09;93325.34;5031108;28;20419;-83
2022/05/04 07:01:30;;;;;;;28.60;12.50;;;;;;;13.06;84.92;93332.44;5030987;28;20049;-83
2022/05/04 07:03:57;;;;;;;25.42;13.55;;;;;;;13.49;84.46;93314.34;5031049;28;20052;-83
2022/05/04 07:06:24;;;;;;;23.88;12.43;;;;;;;13.51;80.33;93317.50;5030447;28;20046;-84
2022/05/04 07:08:52;;;;;;;29.98;13.30;;;;;;;13.47;81.31;93317.16;5031146;28;20046;-84
2022/05/04 07:11:20;;;;;;;24.88;11.52;;;;;;;14.03;82.22;93310.81;5030783;28;20096;-85
2022/05/04 07:13:47;;;;;;;24.02;11.13;;;;;;;14.32;78.48;93313.44;5030771;28;20055;-84
2022/05/04 07:16:15;;;;;;;19.10;9.05;;;;;;;14.21;72.56;93319.41;5030534;28;20042;-83
2022/05/04 07:18:41;;;;;;;11.38;6.38;;;;;;;13.48;75.07;93308.41;5030722;28;20140;-83
2022/05/04 07:21:08;;;;;;;14.82;6.85;;;;;;;13.20;78.67;93309.81;5030644;28;20053;-84
2022/05/04 07:23:35;;;;;;;13.60;6.90;;;;;;;13.29;78.32;93307.69;5030729;28;20050;-84
2022/05/04 07:26:02;;;;;;;15.48;6.15;;;;;;;13.29;79.01;93310.28;5043330;28;20061;-83
2022/05/04 07:28:31;;;;;;;16.95;7.40;;;;;;;12.54;82.67;93312.34;5050527;28;20051;-83
2022/05/04 07:30:57;;;;;;;18.70;5.45;;;;;;;12.73;75.88;93300.22;5050527;28;20561;-83
2022/05/04 07:33:24;;;;;;;15.30;6.43;;;;;;;13.13;75.27;93316.09;5050260;28;20143;-83
2022/05/04 07:35:51;;;;;;;17.75;6.65;;;;;;;13.06;73.95;93301.50;5050712;28;20186;-83
2022/05/04 07:38:18;;;;;;;25.30;6.45;;;;;;;13.20;77.18;93320.13;5050572;28;20041;-85
2022/05/04 07:43:31;;;;;;;29.27;7.53;;;;;;;13.73;75.02;93316.91;5050411;28;20055;-84
2022/05/04 07:45:57;;;;;;;21.08;5.32;;;;;;;13.44;66.28;93320.16;5050214;28;20049;-83
2022/05/04 07:48:24;;;;;;;15.45;3.90;;;;;;;14.16;74.64;93310.56;5050691;28;20056;-83
2022/05/04 07:50:51;;;;;;;15.13;4.03;;;;;;;14.77;73.17;93304.16;5050412;28;20041;-84
2022/05/04 07:53:18;;;;;;;20.58;5.15;;;;;;;15.36;70.93;93321.13;5037083;28;20104;-84
2022/05/04 07:55:45;;;;;;;20.52;5.75;;;;;;;15.88;70.71;93308.88;5030416;28;20408;-84
2022/05/04 07:58:12;;;;;;;22.60;5.78;;;;;;;16.26;68.09;93303.13;5030252;28;20558;-84
2022/05/04 08:06:11;;;;;;;9.82;2.75;;;;;;;16.90;53.22;93309.44;5030286;28;19974;-84
2022/05/04 08:08:38;;;;;;;10.27;2.50;;;;;;;17.05;55.59;93303.66;5030355;28;20073;-85
2022/05/04 08:11:05;;;;;;;8.10;2.30;;;;;;;17.43;46.66;93298.47;5030135;28;20073;-85
2022/05/04 08:13:32;;;;;;;6.85;2.78;;;;;;;17.74;46.74;93298.63;5030325;28;20108;-85
2022/05/04 08:16:00;;;;;;;8.32;2.40;;;;;;;17.42;45.62;93288.31;5030225;28;20546;-84
2022/05/04 08:18:27;;;;;;;9.15;2.60;;;;;;;17.79;50.83;93289.28;5030226;28;20467;-84
2022/05/04 08:20:54;;;;;;;6.13;2.33;;;;;;;17.98;45.33;93289.66;5030212;28;20037;-85
2022/05/04 08:23:21;;;;;;;6.63;2.58;;;;;;;18.19;49.49;93293.13;5032380;28;20046;-84
2022/05/04 08:25:49;;;;;;;4.90;1.40;;;;;;;17.78;43.12;93293.72;5043609;28;20057;-86
2022/05/04 08:28:17;;;;;;;3.60;1.38;;;;;;;18.08;46.70;93286.31;5053746;28;20072;-86
2022/05/04 08:30:45;;;;;;;12.65;2.35;;;;;;;17.71;42.48;93293.16;5053538;28;20489;-85
2022/05/04 08:33:13;;;;;;;6.13;2.22;;;;;;;17.42;45.98;93291.69;5053497;28;20491;-86
2022/05/04 08:35:39;;;;;;;4.30;1.05;;;;;;;17.76;47.27;93277.59;5053455;28;20044;-86
2022/05/04 08:38:06;;;;;;;5.72;1.25;;;;;;;18.23;47.93;93283.03;5053329;28;20106;-85
2022/05/04 08:40:34;;;;;;;6.97;1.67;;;;;;;18.55;43.43;93282.84;5053668;28;20106;-85
2022/05/04 08:43:05;;;;;;;5.10;1.60;;;;;;;18.85;41.56;93280.53;5053260;28;20132;-85
2022/05/04 08:45:33;;;;;;;4.85;1.55;;;;;;;17.95;41.10;93284.97;5053394;28;20128;-87
2022/05/04 08:48:02;;;;;;;3.35;1.40;;;;;;;18.12;41.55;93253.59;5053310;28;20077;-86
2022/05/04 08:50:30;;;;;;;8.82;2.10;;;;;;;18.42;43.99;93280.72;5053017;28;20487;-86
2022/05/04 08:52:57;;;;;;;5.38;1.63;;;;;;;18.90;40.44;93271.94;5052906;28;20048;-85
2022/05/04 08:55:25;;;;;;;8.38;1.65;;;;;;;19.00;37.73;93274.53;5052970;28;20179;-86
2022/05/04 08:57:54;;;;;;;5.70;1.75;;;;;;;18.94;42.80;93276.34;5041736;28;20050;-93
2022/05/04 09:00:21;;;;;;;6.53;2.08;;;;;;;18.63;36.60;93280.75;5051760;28;20467;-84
2022/05/04 09:02:48;;;;;;;3.55;1.25;;;;;;;18.63;38.89;93245.13;5052824;28;20053;-86
2022/05/04 09:05:17;;;;;;;6.22;1.40;;;;;;;19.06;41.83;93275.34;5052790;28;20053;-85
2022/05/04 09:07:48;;;;;;;7.20;2.40;;;;;;;19.36;40.98;93271.94;5052909;28;20060;-86
2022/05/04 09:10:20;;;;;;;3.05;1.25;;;;;;;19.67;37.13;93276.31;5052765;28;20463;-85
2022/05/04 09:12:48;;;;;;;3.33;1.10;;;;;;;19.46;41.39;93265.94;5052686;28;20056;-85
2022/05/04 09:15:20;;;;;;;4.97;2.25;;;;;;;19.95;39.77;93268.16;5052718;28;20055;-85
2022/05/04 09:17:47;;;;;;;2.63;1.40;;;;;;;20.23;40.39;93258.91;5052642;28;20045;-85
2022/05/04 09:22:59;;;;;;;3.33;1.00;;;;;;;20.55;34.78;93270.00;5052609;28;20063;-82
2022/05/04 09:25:26;;;;;;;8.13;1.80;;;;;;;20.94;40.24;93260.59;5052589;28;20052;-83
2022/05/04 09:27:53;;;;;;;3.80;1.48;;;;;;;20.77;36.78;93263.56;5052324;28;20095;-83
2022/05/04 09:30:26;;;;;;;6.25;1.75;;;;;;;20.89;39.43;93243.16;5052570;28;20053;-83
2022/05/04 09:32:53;;;;;;;6.47;2.13;;;;;;;21.36;39.27;93255.81;5052546;28;20568;-82
2022/05/04 09:35:20;;;;;;;3.10;1.40;;;;;;;21.00;38.39;93266.56;5052165;28;20053;-85
2022/05/04 09:46:07;;;;;;;7.72;1.67;;;;;;;20.55;40.67;93243.91;5052076;28;20051;-83
2022/05/04 09:48:36;;;;;;;5.40;2.17;;;;;;;20.80;40.22;93232.50;5051973;28;20550;-85
2022/05/04 09:51:05;;;;;;;3.30;1.55;;;;;;;20.94;40.19;93243.13;5051919;28;20041;-83
2022/05/04 09:53:32;;;;;;;3.05;1.58;;;;;;;21.28;39.80;93241.50;5049408;28;20048;-83
2022/05/04 09:56:01;;;;;;;2.28;1.33;;;;;;;21.21;37.83;93200.03;5059236;28;20491;-83
2022/05/04 09:58:29;;;;;;;2.78;1.38;;;;;;;21.65;39.42;93226.25;5052034;28;20470;-83
2022/05/04 10:00:57;;;;;;;1.80;1.23;;;;;;;21.94;38.84;93209.72;5051936;28;20041;-81
2022/05/04 10:03:25;;;;;;;1.95;1.20;;;;;;;22.16;38.75;93221.47;5051562;28;20053;-83
2022/05/04 10:05:53;;;;;;;4.88;1.40;;;;;;;22.10;39.51;93173.69;5051900;28;20049;-83
2022/05/04 10:08:21;;;;;;;4.40;1.88;;;;;;;22.60;38.61;93216.19;5051664;28;20049;-83
2022/05/04 10:10:48;;;;;;;2.97;1.38;;;;;;;22.71;37.51;93207.13;5051776;28;20053;-83
2022/05/04 10:13:19;;;;;;;3.17;1.42;;;;;;;22.92;37.98;93209.44;5051409;28;20110;-85
2022/05/04 10:15:50;;;;;;;3.22;2.00;;;;;;;22.73;38.57;93212.84;5051547;28;20384;-83
2022/05/04 10:18:21;;;;;;;2.97;1.40;;;;;;;22.98;37.33;93204.88;5051756;28;20056;-83
2022/05/04 10:21:01;;;;;;;4.00;1.20;;;;;;;23.05;38.52;93200.06;5051470;28;20132;-83
2022/05/04 10:23:31;;;;;;;4.65;1.58;;;;;;;22.98;38.58;93208.28;5051439;28;20381;-83
2022/05/04 10:25:58;;;;;;;6.18;2.88;;;;;;;21.95;36.64;93211.31;5051429;28;20079;-83
2022/05/04 10:28:26;;;;;;;3.95;1.92;;;;;;;21.88;38.98;93205.63;5051164;28;20052;-83
2022/05/04 10:30:53;;;;;;;2.83;1.20;;;;;;;21.85;38.97;93178.19;5051439;28;20072;-82
2022/05/04 10:33:24;;;;;;;2.38;1.40;;;;;;;21.76;38.46;93206.81;5051449;28;20099;-81
2022/05/04 10:35:51;;;;;;;3.53;1.75;;;;;;;20.27;41.56;93209.63;5051318;28;20075;-80
2022/05/04 10:38:19;;;;;;;2.65;1.30;;;;;;;19.80;43.21;93201.22;5051120;28;20049;-81
2022/05/04 10:40:50;;;;;;;3.00;1.23;;;;;;;20.31;42.08;93209.88;5051015;28;20041;-83
2022/05/04 10:43:18;;;;;;;2.00;1.15;;;;;;;20.90;41.26;93202.94;5051303;28;20408;-83
2022/05/04 10:45:48;;;;;;;2.72;1.30;;;;;;;20.62;39.53;93194.78;5050670;28;20072;-82
2022/05/04 10:48:28;;;;;;;3.00;1.60;;;;;;;19.92;40.16;93188.66;5050859;28;20144;-84
2022/05/04 10:50:58;;;;;;;3.97;1.80;;;;;;;20.41;42.26;93197.53;5051063;28;20118;-83
2022/05/04 10:53:40;;;;;;;2.42;1.30;;;;;;;20.10;42.57;93199.53;5050583;28;20557;-81
2022/05/04 10:56:09;;;;;;;2.83;1.70;;;;;;;19.58;42.20;93197.91;5048576;28;20049;-81
2022/05/04 10:58:43;;;;;;;2.17;1.10;;;;;;;18.91;42.78;93192.81;5050910;28;20055;-82
2022/05/04 11:01:20;;;;;;;2.90;1.08;;;;;;;19.23;42.66;93152.69;5050910;28;20454;-83
2022/05/04 11:04:14;;;;;;;3.25;1.25;;;;;;;19.48;40.97;93196.13;5050974;28;20412;-81
2022/05/04 11:06:43;;;;;;;2.95;1.30;;;;;;;18.89;44.39;93189.69;5050842;28;20095;-83
2022/05/04 11:09:11;;;;;;;2.20;1.45;;;;;;;18.13;44.05;93175.38;5050706;28;20506;-82
2022/05/04 11:11:40;;;;;;;2.58;1.33;;;;;;;17.95;46.81;93186.97;5050779;28;20049;-82
2022/05/04 11:14:08;;;;;;;4.97;1.85;;;;;;;18.03;44.59;93167.50;5052069;28;20072;-83
2022/05/04 11:16:37;;;;;;;3.83;1.48;;;;;;;18.45;45.19;93178.78;5052365;28;20135;-83
2022/05/04 11:19:05;;;;;;;2.92;1.25;;;;;;;18.00;43.57;93174.00;5050587;28;20044;-83
2022/05/04 11:21:33;;;;;;;2.53;1.13;;;;;;;17.90;43.54;93184.38;5050733;28;20040;-82
2022/05/04 11:24:01;;;;;;;5.45;1.40;;;;;;;18.13;46.07;93184.97;5035917;28;20049;-82
2022/05/04 11:27:08;;;;;;;1.75;1.20;;;;;;;17.11;45.94;93184.31;5030306;28;20405;-83
2022/05/04 11:29:57;;;;;;;3.90;1.70;;;;;;;16.83;46.81;93135.06;5027547;28;20111;-82
2022/05/04 11:32:28;;;;;;;2.55;1.27;;;;;;;16.57;49.30;93184.16;5030517;28;20054;-83
2022/05/04 11:34:57;;;;;;;3.20;2.00;;;;;;;16.46;48.95;93167.72;5030119;28;20054;-83
2022/05/04 11:37:25;;;;;;;3.97;1.92;;;;;;;15.98;48.87;93092.44;5031527;28;20057;-83
2022/05/04 11:39:51;;;;;;;6.82;2.58;;;;;;;16.92;49.29;93184.66;5030406;28;20053;-83
2022/05/04 11:42:18;;;;;;;2.30;1.30;;;;;;;16.90;47.19;93182.31;5030624;28;20052;-83
2022/05/04 11:44:47;;;;;;;4.53;1.50;;;;;;;17.05;47.73;93175.69;5029763;28;20050;-83
2022/05/04 11:47:14;;;;;;;2.42;1.50;;;;;;;17.14;47.79;93176.00;5030474;28;20488;-83
2022/05/04 11:49:43;;;;;;;3.03;1.60;;;;;;;17.34;49.51;93170.13;5030399;28;20053;-82
2022/05/04 11:52:10;;;;;;;2.95;1.45;;;;;;;17.52;47.98;93166.31;5030580;28;20065;-83
2022/05/04 11:54:37;;;;;;;2.85;1.65;;;;;;;17.86;49.85;93168.50;5029443;28;20534;-83
2022/05/04 11:57:12;;;;;;;2.63;1.20;;;;;;;18.09;46.30;93150.16;5032248;28;20057;-82
2022/05/04 11:59:38;;;;;;;3.17;1.50;;;;;;;18.19;45.55;93162.38;5034262;28;20045;-83
2022/05/04 12:02:07;;;;;;;2.75;1.40;;;;;;;18.22;45.85;93159.25;5034022;28;20459;-83
2022/05/04 12:04:35;;;;;;;3.70;1.52;;;;;;;18.26;46.89;93161.09;5034372;28;20049;-83
2022/05/04 12:07:04;;;;;;;4.97;1.75;;;;;;;18.36;48.54;93142.09;5034281;28;20057;-83
2022/05/04 12:09:31;;;;;;;7.38;1.75;;;;;;;18.37;49.21;93150.69;5034397;28;20093;-83